createdAt,value
2019-02-20T00:00:08.687Z,11.67
2019-02-20T00:02:36.444Z,11.67
2019-02-20T00:05:04.252Z,11.47
2019-02-20T00:07:32.000Z,10.77
2019-02-20T00:10:00.769Z,11.37
2019-02-20T00:12:28.551Z,11.30
2019-02-20T00:14:56.500Z,11.50
2019-02-20T00:17:24.320Z,11.80
2019-02-20T00:19:52.106Z,11.63
2019-02-20T00:22:19.881Z,12.43
2019-02-20T00:24:47.783Z,11.83
2019-02-20T00:27:15.590Z,12.27
2019-02-20T00:29:43.357Z,11.53
2019-02-20T00:32:11.113Z,12.37
2019-02-20T00:34:38.881Z,12.27
2019-02-20T00:37:06.635Z,12.43
2019-02-20T00:39:34.565Z,12.77
2019-02-20T00:42:02.335Z,12.50
2019-02-20T00:44:39.104Z,12.50
2019-02-20T00:47:24.782Z,10.90
2019-02-20T00:49:52.515Z,11.97
2019-02-20T00:52:39.909Z,11.57
2019-02-20T00:55:08.576Z,11.77
2019-02-20T00:57:36.397Z,12.77
2019-02-20T01:00:05.044Z,11.40
2019-02-20T01:02:32.791Z,11.50
2019-02-20T01:05:00.656Z,10.93
2019-02-20T01:07:28.647Z,11.87
2019-02-20T01:09:56.390Z,11.13
2019-02-20T01:12:24.301Z,11.20
2019-02-20T01:14:52.051Z,11.00
2019-02-20T01:17:19.977Z,11.20
2019-02-20T01:19:47.734Z,11.73
2019-02-20T01:22:15.479Z,11.93
2019-02-20T01:24:43.429Z,12.07
2019-02-20T01:27:11.181Z,11.17
2019-02-20T01:29:38.926Z,12.13
2019-02-20T01:32:06.851Z,12.07
2019-02-20T01:34:34.619Z,12.77
2019-02-20T01:37:02.569Z,12.67
2019-02-20T01:39:30.316Z,12.23
2019-02-20T01:41:58.238Z,12.40
2019-02-20T01:44:25.962Z,12.47
2019-02-20T01:46:53.858Z,13.00
2019-02-20T01:49:21.648Z,12.10
2019-02-20T01:51:49.413Z,13.40
2019-02-20T01:54:17.132Z,13.33
2019-02-20T01:56:45.086Z,13.73
2019-02-20T01:59:12.832Z,12.67
2019-02-20T02:01:40.772Z,13.37
2019-02-20T02:04:08.532Z,12.70
2019-02-20T02:06:36.538Z,12.90
2019-02-20T02:09:06.572Z,12.07
2019-02-20T02:11:34.502Z,12.10
2019-02-20T02:14:02.262Z,13.13
2019-02-20T02:16:30.190Z,12.17
2019-02-20T02:18:57.890Z,12.40
2019-02-20T02:21:25.822Z,12.40
2019-02-20T02:23:53.607Z,12.13
2019-02-20T02:26:21.366Z,12.03
2019-02-20T02:28:49.114Z,11.83
2019-02-20T02:31:17.040Z,12.10
2019-02-20T02:33:44.795Z,10.97
2019-02-20T02:36:12.773Z,11.73
2019-02-20T02:38:40.496Z,10.87
2019-02-20T02:41:08.454Z,11.77
2019-02-20T02:43:36.342Z,11.37
2019-02-20T02:46:04.166Z,11.27
2019-02-20T02:48:32.127Z,11.43
2019-02-20T02:50:59.865Z,11.23
2019-02-20T02:53:30.577Z,10.57
2019-02-20T02:55:57.385Z,11.67
2019-02-20T02:58:25.325Z,10.87
2019-02-20T03:00:54.279Z,11.23
2019-02-20T03:03:22.131Z,11.00
2019-02-20T03:05:49.923Z,11.17
2019-02-20T03:08:17.874Z,11.80
2019-02-20T03:10:45.585Z,10.97
2019-02-20T03:13:13.357Z,10.97
2019-02-20T03:15:41.169Z,11.33
2019-02-20T03:18:09.163Z,11.13
2019-02-20T03:20:36.893Z,11.00
2019-02-20T03:23:04.714Z,12.20
2019-02-20T03:25:32.519Z,11.30
2019-02-20T03:28:00.275Z,11.87
2019-02-20T03:30:28.045Z,11.47
2019-02-20T03:32:55.994Z,11.70
2019-02-20T03:35:23.708Z,11.63
2019-02-20T03:37:51.695Z,11.10
2019-02-20T03:40:19.441Z,11.87
2019-02-20T03:42:47.173Z,11.70
2019-02-20T03:45:15.014Z,11.73
2019-02-20T03:47:42.977Z,11.03
2019-02-20T03:50:10.685Z,10.93
2019-02-20T03:52:38.471Z,11.10
2019-02-20T03:55:06.220Z,11.43
2019-02-20T03:57:33.982Z,12.50
2019-02-20T04:00:01.762Z,11.43
2019-02-20T04:02:29.682Z,11.17
2019-02-20T04:04:57.422Z,11.47
2019-02-20T04:07:25.386Z,11.40
2019-02-20T04:09:53.140Z,11.90
2019-02-20T04:12:21.108Z,11.97
2019-02-20T04:14:49.035Z,11.43
2019-02-20T04:17:16.766Z,11.97
2019-02-20T04:19:47.362Z,11.37
2019-02-20T04:22:15.272Z,11.93
2019-02-20T04:24:43.199Z,11.33
2019-02-20T04:27:10.963Z,11.40
2019-02-20T04:29:38.886Z,10.10
2019-02-20T04:32:06.643Z,11.93
2019-02-20T04:34:34.383Z,10.70
2019-02-20T04:37:02.140Z,11.20
2019-02-20T04:39:29.897Z,10.90
2019-02-20T04:41:57.682Z,10.60
2019-02-20T04:44:25.420Z,10.93
2019-02-20T04:46:53.182Z,9.77
2019-02-20T04:49:21.075Z,10.50
2019-02-20T04:51:48.833Z,10.80
2019-02-20T04:54:16.589Z,10.57
2019-02-20T04:56:44.339Z,10.73
2019-02-20T04:59:12.304Z,11.03
2019-02-20T05:01:40.070Z,10.53
2019-02-20T05:04:07.815Z,10.50
2019-02-20T05:06:35.609Z,10.30
2019-02-20T05:09:04.726Z,10.13
2019-02-20T05:11:32.545Z,10.13
2019-02-20T05:14:00.477Z,10.23
2019-02-20T05:16:30.246Z,10.40
2019-02-20T05:18:58.188Z,10.40
2019-02-20T05:21:25.947Z,11.17
2019-02-20T05:23:53.881Z,9.90
2019-02-20T05:26:21.650Z,10.70
2019-02-20T05:28:49.436Z,10.80
2019-02-20T05:31:17.194Z,11.00
2019-02-20T05:33:46.164Z,10.43
2019-02-20T05:36:15.654Z,9.60
2019-02-20T05:38:43.613Z,9.60
2019-02-20T05:41:11.406Z,9.80
2019-02-20T05:43:39.347Z,10.47
2019-02-20T05:46:07.215Z,10.33
2019-02-20T05:48:35.278Z,9.70
2019-02-20T05:51:03.041Z,9.83
2019-02-20T05:53:31.014Z,10.40
2019-02-20T05:55:58.968Z,9.63
2019-02-20T05:58:26.926Z,12.20
2019-02-20T06:00:54.994Z,9.90
2019-02-20T06:03:22.974Z,9.37
2019-02-20T06:05:50.754Z,9.97
2019-02-20T06:08:18.622Z,9.90
2019-02-20T06:10:46.364Z,10.00
2019-02-20T06:13:14.130Z,10.17
2019-02-20T06:15:43.146Z,10.07
2019-02-20T06:18:11.079Z,9.93
2019-02-20T06:20:38.870Z,9.97
2019-02-20T06:23:08.936Z,9.53
2019-02-20T06:25:36.683Z,9.90
2019-02-20T06:28:04.433Z,9.60
2019-02-20T06:30:32.196Z,9.93
2019-02-20T06:33:00.025Z,9.57
2019-02-20T06:35:27.814Z,9.90
2019-02-20T06:37:55.595Z,10.60
2019-02-20T06:40:23.407Z,9.60
2019-02-20T06:42:51.196Z,9.80
2019-02-20T06:45:19.019Z,10.03
2019-02-20T06:47:48.140Z,9.43
2019-02-20T06:50:15.965Z,10.30
2019-02-20T06:52:43.841Z,9.63
2019-02-20T06:55:11.647Z,10.40
2019-02-20T06:57:39.431Z,9.77
2019-02-20T07:00:09.217Z,9.63
2019-02-20T07:02:37.011Z,9.73
2019-02-20T07:05:33.909Z,9.70
2019-02-20T07:09:03.957Z,9.60
2019-02-20T07:12:22.437Z,9.40
2019-02-20T07:16:08.094Z,9.50
2019-02-20T07:19:38.712Z,10.13
2019-02-20T07:22:41.903Z,10.03
2019-02-20T07:26:10.413Z,9.40
2019-02-20T07:29:25.215Z,9.97
2019-02-20T07:31:53.525Z,9.57
2019-02-20T07:34:21.333Z,9.87
2019-02-20T07:36:49.276Z,9.80
2019-02-20T07:39:17.105Z,9.93
2019-02-20T07:41:44.924Z,9.87
2019-02-20T07:44:12.696Z,9.50
2019-02-20T07:46:40.612Z,9.47
2019-02-20T07:49:08.386Z,9.17
2019-02-20T07:51:36.332Z,8.70
2019-02-20T07:54:04.103Z,9.13
2019-02-20T07:56:31.876Z,9.40
2019-02-20T07:58:59.640Z,9.20
2019-02-20T08:01:27.402Z,9.07
2019-02-20T08:03:55.149Z,9.03
2019-02-20T08:06:22.900Z,9.17
2019-02-20T08:08:50.713Z,9.63
2019-02-20T08:11:18.864Z,8.43
2019-02-20T08:13:46.627Z,9.43
2019-02-20T08:16:14.454Z,9.50
2019-02-20T08:18:42.208Z,8.83
2019-02-20T08:21:10.091Z,9.37
2019-02-20T08:23:38.044Z,9.70
2019-02-20T08:26:05.795Z,9.00
2019-02-20T08:28:33.542Z,9.23
2019-02-20T08:31:02.070Z,8.77
2019-02-20T08:33:29.875Z,9.03
2019-02-20T08:35:57.651Z,9.23
2019-02-20T08:38:25.404Z,9.00
2019-02-20T08:40:53.168Z,9.40
2019-02-20T08:43:20.991Z,9.20
2019-02-20T08:45:48.786Z,9.23
2019-02-20T08:48:16.565Z,9.20
2019-02-20T08:50:44.334Z,8.50
2019-02-20T08:53:12.125Z,8.73
2019-02-20T08:55:39.897Z,8.63
2019-02-20T08:58:07.853Z,8.30
2019-02-20T09:00:35.759Z,8.93
2019-02-20T09:03:03.706Z,8.27
2019-02-20T09:05:31.487Z,9.07
2019-02-20T09:07:59.442Z,8.60
2019-02-20T09:10:27.319Z,8.97
2019-02-20T09:12:55.223Z,9.37
2019-02-20T09:15:23.037Z,9.77
2019-02-20T09:17:50.905Z,8.47
2019-02-20T09:20:18.723Z,9.03
2019-02-20T09:22:46.669Z,8.87
2019-02-20T09:25:19.871Z,9.07
2019-02-20T09:27:44.391Z,8.57
2019-02-20T09:30:12.791Z,8.80
2019-02-20T09:32:40.741Z,9.33
2019-02-20T09:35:08.998Z,9.57
2019-02-20T09:37:36.909Z,9.10
2019-02-20T09:40:07.537Z,9.20
2019-02-20T09:42:37.546Z,10.27
2019-02-20T09:45:05.581Z,9.83
2019-02-20T09:47:33.354Z,9.27
2019-02-20T09:50:01.118Z,10.30
2019-02-20T09:52:28.873Z,9.63
2019-02-20T09:54:56.626Z,9.20
2019-02-20T09:57:24.434Z,10.00
2019-02-20T09:59:52.167Z,9.37
2019-02-20T10:02:19.970Z,9.40
2019-02-20T10:04:48.071Z,9.50
2019-02-20T10:07:15.845Z,9.77
2019-02-20T10:09:43.666Z,8.43
2019-02-20T10:12:11.504Z,9.13
2019-02-20T10:14:40.350Z,9.07
2019-02-20T10:17:08.310Z,9.33
2019-02-20T10:19:36.102Z,8.57
2019-02-20T10:22:04.140Z,9.00
2019-02-20T10:24:31.892Z,10.03
2019-02-20T10:27:00.848Z,8.70
2019-02-20T10:29:29.322Z,9.83
2019-02-20T10:31:57.136Z,9.13
2019-02-20T10:34:24.850Z,8.57
2019-02-20T10:36:52.799Z,8.97
2019-02-20T10:39:20.441Z,8.83
2019-02-20T10:41:48.312Z,9.17
2019-02-20T10:44:16.053Z,9.17
2019-02-20T10:46:44.164Z,9.97
2019-02-20T10:49:11.917Z,8.67
2019-02-20T10:51:39.716Z,10.30
2019-02-20T10:54:07.492Z,9.20
2019-02-20T10:56:36.584Z,8.40
2019-02-20T10:59:05.207Z,8.37
2019-02-20T11:01:33.007Z,8.00
2019-02-20T11:04:00.813Z,8.27
2019-02-20T11:06:28.615Z,9.03
2019-02-20T11:08:56.396Z,8.77
2019-02-20T11:11:24.234Z,8.43
2019-02-20T11:13:53.311Z,8.23
2019-02-20T11:16:21.065Z,8.50
2019-02-20T11:18:48.892Z,9.60
2019-02-20T11:21:16.645Z,11.30
2019-02-20T11:23:44.413Z,9.07
2019-02-20T11:26:17.930Z,9.70
2019-02-20T11:28:42.185Z,8.93
2019-02-20T11:31:10.195Z,8.80
2019-02-20T11:33:38.358Z,8.53
2019-02-20T11:36:06.107Z,8.20
2019-02-20T11:38:33.885Z,8.30
2019-02-20T11:41:02.596Z,8.63
2019-02-20T11:43:30.370Z,8.10
2019-02-20T11:45:58.167Z,8.77
2019-02-20T11:48:26.250Z,6.90
2019-02-20T11:50:54.263Z,8.23
2019-02-20T11:53:21.994Z,8.77
2019-02-20T11:55:49.785Z,8.30
2019-02-20T11:58:17.606Z,8.10
2019-02-20T12:00:45.416Z,7.90
2019-02-20T12:03:13.262Z,8.37
2019-02-20T12:05:41.068Z,8.40
2019-02-20T12:08:08.978Z,8.97
2019-02-20T12:10:37.002Z,8.30
2019-02-20T12:13:04.728Z,7.93
2019-02-20T12:15:32.582Z,8.13
2019-02-20T12:18:00.428Z,8.07
2019-02-20T12:20:28.240Z,7.20
2019-02-20T12:22:56.005Z,7.97
2019-02-20T12:25:23.764Z,7.20
2019-02-20T12:27:51.577Z,7.13
2019-02-20T12:30:19.324Z,6.93
2019-02-20T12:32:47.104Z,7.30
2019-02-20T12:35:14.923Z,7.63
2019-02-20T12:37:42.835Z,7.33
2019-02-20T12:40:10.831Z,7.17
2019-02-20T12:42:38.639Z,6.83
2019-02-20T12:45:06.539Z,6.70
2019-02-20T12:47:34.344Z,5.63
2019-02-20T12:50:02.342Z,6.20
2019-02-20T12:52:30.196Z,5.73
2019-02-20T12:54:58.022Z,5.83
2019-02-20T12:57:25.908Z,5.77
2019-02-20T12:59:53.683Z,5.60
2019-02-20T13:02:21.507Z,5.07
2019-02-20T13:04:49.431Z,5.07
2019-02-20T13:07:17.749Z,4.83
2019-02-20T13:09:45.726Z,4.87
2019-02-20T13:12:13.538Z,4.73
2019-02-20T13:14:41.296Z,4.53
2019-02-20T13:17:09.350Z,4.50
2019-02-20T13:19:37.160Z,4.70
2019-02-20T13:22:04.995Z,4.83
2019-02-20T13:24:32.769Z,5.23
2019-02-20T13:27:07.380Z,5.30
2019-02-20T13:29:30.295Z,5.20
2019-02-20T13:31:58.099Z,5.00
2019-02-20T13:34:25.969Z,4.80
2019-02-20T13:36:53.894Z,5.43
2019-02-20T13:39:21.759Z,5.97
2019-02-20T13:41:49.610Z,5.40
2019-02-20T13:44:17.402Z,5.53
2019-02-20T13:46:45.190Z,4.90
2019-02-20T13:49:13.367Z,4.93
2019-02-20T13:51:41.537Z,5.33
2019-02-20T13:54:09.332Z,5.00
2019-02-20T13:56:37.137Z,5.10
2019-02-20T13:59:05.023Z,4.57
2019-02-20T14:01:32.847Z,4.90
2019-02-20T14:04:00.649Z,5.00
2019-02-20T14:06:28.860Z,4.90
2019-02-20T14:08:56.622Z,5.73
2019-02-20T14:11:24.395Z,5.30
2019-02-20T14:13:52.158Z,5.80
2019-02-20T14:16:19.902Z,6.33
2019-02-20T14:18:47.735Z,6.10
2019-02-20T14:21:15.516Z,6.47
2019-02-20T14:23:43.250Z,6.53
2019-02-20T14:26:10.999Z,5.80
2019-02-20T14:28:38.791Z,5.97
2019-02-20T14:31:07.110Z,6.23
2019-02-20T14:33:34.945Z,6.47
2019-02-20T14:36:02.699Z,6.73
2019-02-20T14:38:31.968Z,6.00
2019-02-20T14:40:59.871Z,6.93
2019-02-20T14:43:27.672Z,7.07
2019-02-20T14:45:55.616Z,6.30
2019-02-20T14:48:23.466Z,6.80
2019-02-20T14:50:51.336Z,6.33
2019-02-20T14:53:19.097Z,7.40
2019-02-20T14:55:46.839Z,7.27
2019-02-20T14:58:14.642Z,6.87
2019-02-20T15:00:42.587Z,7.67
2019-02-20T15:03:10.382Z,6.23
2019-02-20T15:05:38.148Z,6.90
2019-02-20T15:08:06.335Z,6.80
2019-02-20T15:10:34.133Z,7.03
2019-02-20T15:13:01.916Z,6.90
2019-02-20T15:15:29.727Z,6.53
2019-02-20T15:17:57.959Z,7.00
2019-02-20T15:20:25.696Z,7.40
2019-02-20T15:22:53.464Z,7.10
2019-02-20T15:25:21.252Z,7.50
2019-02-20T15:27:49.059Z,7.67
2019-02-20T15:30:16.805Z,7.10
2019-02-20T15:32:44.603Z,7.27
2019-02-20T15:35:12.767Z,7.03
2019-02-20T15:37:40.587Z,7.07
2019-02-20T15:40:08.658Z,7.13
2019-02-20T15:42:36.443Z,7.27
2019-02-20T15:45:04.920Z,6.67
2019-02-20T15:47:32.734Z,7.40
2019-02-20T15:50:00.488Z,7.13
2019-02-20T15:52:28.470Z,7.50
2019-02-20T15:54:56.220Z,7.77
2019-02-20T15:57:24.003Z,7.63
2019-02-20T15:59:51.756Z,7.30
2019-02-20T16:02:19.768Z,7.60
2019-02-20T16:04:47.549Z,7.60
2019-02-20T16:07:15.527Z,8.03
2019-02-20T16:09:43.274Z,7.80
2019-02-20T16:12:11.386Z,7.33
2019-02-20T16:14:39.158Z,7.60
2019-02-20T16:17:10.094Z,7.80
2019-02-20T16:19:37.840Z,7.67
2019-02-20T16:22:05.668Z,7.57
2019-02-20T16:24:33.601Z,7.30
2019-02-20T16:27:01.363Z,7.70
2019-02-20T16:29:29.593Z,7.43
2019-02-20T16:31:57.419Z,7.67
2019-02-20T16:34:25.196Z,7.97
2019-02-20T16:36:52.965Z,7.87
2019-02-20T16:39:20.971Z,7.20
2019-02-20T16:41:48.731Z,7.83
2019-02-20T16:44:16.518Z,8.00
2019-02-20T16:46:44.678Z,7.53
2019-02-20T16:49:12.466Z,7.80
2019-02-20T16:51:40.209Z,7.37
2019-02-20T16:54:08.145Z,7.77
2019-02-20T16:56:35.899Z,10.13
2019-02-20T16:59:05.180Z,8.03
2019-02-20T17:01:33.315Z,7.30
2019-02-20T17:04:01.395Z,7.57
2019-02-20T17:06:29.192Z,7.07
2019-02-20T17:08:56.941Z,6.90
2019-02-20T17:11:24.711Z,7.03
2019-02-20T17:13:52.485Z,6.90
2019-02-20T17:16:20.315Z,7.67
2019-02-20T17:18:48.148Z,7.13
2019-02-20T17:21:16.299Z,6.60
2019-02-20T17:23:44.051Z,7.10
2019-02-20T17:26:11.877Z,7.23
2019-02-20T17:28:39.653Z,7.07
2019-02-20T17:31:07.454Z,7.43
2019-02-20T17:33:35.273Z,7.03
2019-02-20T17:36:03.261Z,6.83
2019-02-20T17:38:31.430Z,6.73
2019-02-20T17:40:59.231Z,6.83
2019-02-20T17:43:26.983Z,5.80
2019-02-20T17:45:54.879Z,6.50
2019-02-20T17:48:22.650Z,6.67
2019-02-20T17:50:50.426Z,6.57
2019-02-20T17:53:18.192Z,6.23
2019-02-20T17:55:46.375Z,6.40
2019-02-20T17:58:15.412Z,6.67
2019-02-20T18:00:43.448Z,6.70
2019-02-20T18:03:11.223Z,7.03
2019-02-20T18:05:38.992Z,6.97
2019-02-20T18:08:06.872Z,7.17
2019-02-20T18:10:34.628Z,7.67
2019-02-20T18:13:02.423Z,8.70
2019-02-20T18:15:30.145Z,8.13
2019-02-20T18:17:57.920Z,8.40
2019-02-20T18:20:25.684Z,6.97
2019-02-20T18:22:53.510Z,8.23
2019-02-20T18:25:21.266Z,7.20
2019-02-20T18:27:49.044Z,7.67
2019-02-20T18:30:16.845Z,7.07
2019-02-20T18:32:44.580Z,6.50
2019-02-20T18:35:12.433Z,7.20
2019-02-20T18:37:40.161Z,7.30
2019-02-20T18:40:08.850Z,6.87
2019-02-20T18:42:36.662Z,7.50
2019-02-20T18:45:06.065Z,7.70
2019-02-20T18:47:33.844Z,6.40
2019-02-20T18:50:01.706Z,7.60
2019-02-20T18:52:30.638Z,8.17
2019-02-20T18:55:05.553Z,8.07
2019-02-20T18:57:28.273Z,8.10
2019-02-20T18:59:56.147Z,7.93
2019-02-20T19:02:23.887Z,8.03
2019-02-20T19:04:51.693Z,9.00
2019-02-20T19:07:19.564Z,9.13
2019-02-20T19:09:48.748Z,8.63
2019-02-20T19:13:19.406Z,8.80
2019-02-20T19:16:53.468Z,9.00
2019-02-20T19:19:55.789Z,9.53
2019-02-20T19:23:13.672Z,9.47
2019-02-20T19:26:24.168Z,10.13
2019-02-20T19:29:29.669Z,9.87
2019-02-20T19:32:44.229Z,9.93
2019-02-20T19:36:08.294Z,9.93
2019-02-20T19:38:52.567Z,10.43
2019-02-20T19:42:27.077Z,10.47
2019-02-20T19:46:04.343Z,9.43
2019-02-20T19:48:55.069Z,9.93
2019-02-20T19:52:09.307Z,10.60
2019-02-20T19:55:20.324Z,10.17
2019-02-20T19:58:36.192Z,11.27
2019-02-20T20:02:13.338Z,11.00
2019-02-20T20:05:47.864Z,10.93
2019-02-20T20:09:19.339Z,10.27
2019-02-20T20:12:23.544Z,11.07
2019-02-20T20:15:59.741Z,10.70
2019-02-20T20:19:38.195Z,11.87
2019-02-20T20:23:10.127Z,12.03
2019-02-20T20:26:39.785Z,11.83
2019-02-20T20:30:21.040Z,12.63
2019-02-20T20:33:50.107Z,12.13
2019-02-20T20:37:26.014Z,12.53
2019-02-20T20:40:28.313Z,11.97
2019-02-20T20:43:47.197Z,11.20
2019-02-20T20:47:21.056Z,11.40
2019-02-20T20:50:00.467Z,11.67
2019-02-20T20:53:24.377Z,12.63
2019-02-20T20:57:04.599Z,11.73
2019-02-20T21:00:35.000Z,13.13
2019-02-20T21:03:08.635Z,12.03
2019-02-20T21:06:09.344Z,12.00
2019-02-20T21:09:00.479Z,11.83
2019-02-20T21:12:32.969Z,11.93
2019-02-20T21:15:54.949Z,12.03
2019-02-20T21:19:05.415Z,11.00
2019-02-20T21:22:46.421Z,11.27
2019-02-20T21:26:07.795Z,11.73
2019-02-20T21:29:15.938Z,11.03
2019-02-20T21:32:24.167Z,10.70
2019-02-20T21:35:29.339Z,10.90
2019-02-20T21:38:17.519Z,10.13
2019-02-20T21:41:19.497Z,10.33
2019-02-20T21:44:31.220Z,11.07
2019-02-20T21:47:22.939Z,10.00
2019-02-20T21:50:41.135Z,9.97
2019-02-20T21:54:10.822Z,9.53
2019-02-20T21:57:10.808Z,8.83
2019-02-20T22:00:48.935Z,8.97
2019-02-20T22:04:29.446Z,9.73
2019-02-20T22:07:50.502Z,10.00
2019-02-20T22:11:27.190Z,10.00
2019-02-20T22:14:50.103Z,10.10
2019-02-20T22:18:37.238Z,9.97
2019-02-20T22:22:29.701Z,9.90
2019-02-20T22:25:41.256Z,10.03
2019-02-20T22:28:59.224Z,12.00
2019-02-20T22:32:38.916Z,10.93
2019-02-20T22:35:33.494Z,11.73
2019-02-20T22:38:42.192Z,10.97
2019-02-20T22:42:10.456Z,11.27
2019-02-20T22:45:53.078Z,10.97
2019-02-20T22:48:45.092Z,11.07
2019-02-20T22:51:52.986Z,11.37
2019-02-20T22:55:23.188Z,10.70
2019-02-20T22:58:41.239Z,10.80
2019-02-20T23:01:52.975Z,10.57
2019-02-20T23:04:57.953Z,10.90
2019-02-20T23:07:54.966Z,11.63
2019-02-20T23:11:06.665Z,10.93
2019-02-20T23:14:39.651Z,11.73
2019-02-20T23:17:07.504Z,11.80
2019-02-20T23:19:35.285Z,11.27
2019-02-20T23:22:03.115Z,11.33
2019-02-20T23:24:30.866Z,11.40
2019-02-20T23:26:58.614Z,11.17
2019-02-20T23:29:26.332Z,11.47
2019-02-20T23:31:54.092Z,11.40
2019-02-20T23:34:22.025Z,11.17
2019-02-20T23:36:49.775Z,11.37
2019-02-20T23:39:17.583Z,11.97
2019-02-20T23:41:45.338Z,11.50
2019-02-20T23:44:13.122Z,11.70
2019-02-20T23:46:40.891Z,11.43
2019-02-20T23:49:08.675Z,11.40
2019-02-20T23:51:36.593Z,11.73
2019-02-20T23:54:04.536Z,11.13
2019-02-20T23:56:32.245Z,11.30
2019-02-20T23:59:00.028Z,11.50
